createdAt,value
2023-05-14T00:00:06.143Z,15.69
2023-05-14T00:01:06.118Z,15.60
2023-05-14T00:02:06.139Z,15.56
2023-05-14T00:03:06.348Z,15.46
2023-05-14T00:04:06.147Z,15.45
2023-05-14T00:05:06.079Z,15.49
2023-05-14T00:06:06.082Z,15.41
2023-05-14T00:07:06.036Z,15.37
2023-05-14T00:08:06.068Z,15.27
2023-05-14T00:09:06.048Z,15.26
2023-05-14T00:10:06.071Z,15.27
2023-05-14T00:11:05.996Z,15.28
2023-05-14T00:12:05.973Z,15.23
2023-05-14T00:13:05.974Z,15.26
2023-05-14T00:14:06.014Z,15.22
2023-05-14T00:15:05.935Z,15.19
2023-05-14T00:16:06.199Z,15.17
2023-05-14T00:17:05.940Z,15.15
2023-05-14T00:18:05.922Z,15.13
2023-05-14T00:19:06.102Z,15.10
2023-05-14T00:20:05.876Z,15.11
2023-05-14T00:21:05.871Z,15.11
2023-05-14T00:22:05.833Z,15.11
2023-05-14T00:23:05.861Z,15.08
2023-05-14T00:24:05.854Z,15.04
2023-05-14T00:25:05.806Z,15.01
2023-05-14T00:26:05.797Z,14.98
2023-05-14T00:27:05.757Z,14.93
2023-05-14T00:28:05.774Z,14.88
2023-05-14T00:29:05.787Z,14.93
2023-05-14T00:30:05.758Z,14.83
2023-05-14T00:31:05.717Z,14.81
2023-05-14T00:32:05.741Z,14.83
2023-05-14T00:33:05.719Z,14.77
2023-05-14T00:34:05.687Z,14.80
2023-05-14T00:35:05.664Z,14.77
2023-05-14T00:36:05.649Z,14.72
2023-05-14T00:37:05.695Z,14.73
2023-05-14T00:38:05.613Z,14.71
2023-05-14T00:39:05.594Z,14.69
2023-05-14T00:40:05.675Z,14.76
2023-05-14T00:41:05.579Z,14.67
2023-05-14T00:42:05.580Z,14.67
2023-05-14T00:43:05.561Z,14.68
2023-05-14T00:44:05.561Z,14.67
2023-05-14T00:45:05.559Z,14.66
2023-05-14T00:46:05.545Z,14.67
2023-05-14T00:47:05.551Z,14.68
2023-05-14T00:48:05.527Z,14.66
2023-05-14T00:49:05.490Z,14.64
2023-05-14T00:50:05.468Z,14.61
2023-05-14T00:51:05.473Z,14.58
2023-05-14T00:52:05.432Z,14.65
2023-05-14T00:53:05.405Z,14.63
2023-05-14T00:54:05.428Z,14.62
2023-05-14T00:55:05.400Z,14.63
2023-05-14T00:56:05.386Z,14.60
2023-05-14T00:57:05.354Z,14.62
2023-05-14T00:58:05.387Z,14.61
2023-05-14T00:59:05.328Z,14.58
2023-05-14T01:00:05.347Z,14.56
2023-05-14T01:01:05.379Z,14.52
2023-05-14T01:02:05.306Z,14.51
2023-05-14T01:03:05.305Z,14.50
2023-05-14T01:04:05.405Z,14.59
2023-05-14T01:05:05.253Z,14.49
2023-05-14T01:06:05.267Z,14.39
2023-05-14T01:07:05.243Z,14.50
2023-05-14T01:08:05.231Z,14.43
2023-05-14T01:09:05.234Z,14.46
2023-05-14T01:10:05.201Z,14.45
2023-05-14T01:11:05.220Z,14.45
2023-05-14T01:12:05.164Z,14.44
2023-05-14T01:13:05.206Z,14.43
2023-05-14T01:14:05.143Z,14.42
2023-05-14T01:15:05.169Z,14.44
2023-05-14T01:16:05.174Z,14.40
2023-05-14T01:17:05.108Z,14.41
2023-05-14T01:18:05.166Z,14.46
2023-05-14T01:19:05.118Z,14.44
2023-05-14T01:20:05.070Z,14.41
2023-05-14T01:21:05.079Z,14.44
2023-05-14T01:22:05.051Z,14.44
2023-05-14T01:23:05.038Z,14.48
2023-05-14T01:24:05.036Z,14.45
2023-05-14T01:25:04.984Z,14.45
2023-05-14T01:26:05.001Z,14.48
2023-05-14T01:27:04.984Z,14.48
2023-05-14T01:28:04.970Z,14.47
2023-05-14T01:29:04.937Z,14.50
2023-05-14T01:30:04.960Z,14.51
2023-05-14T01:31:04.951Z,14.57
2023-05-14T01:32:05.078Z,14.51
2023-05-14T01:33:04.972Z,14.51
2023-05-14T01:34:04.983Z,14.58
2023-05-14T01:35:04.871Z,14.59
2023-05-14T01:36:04.858Z,14.56
2023-05-14T01:37:04.838Z,14.56
2023-05-14T01:38:04.839Z,14.60
2023-05-14T01:39:04.826Z,14.60
2023-05-14T01:40:04.818Z,14.56
2023-05-14T01:41:04.783Z,14.58
2023-05-14T01:42:04.794Z,14.57
2023-05-14T01:43:04.783Z,14.59
2023-05-14T01:44:04.759Z,14.62
2023-05-14T01:45:04.716Z,14.65
2023-05-14T01:46:04.853Z,14.63
2023-05-14T01:47:04.698Z,14.52
2023-05-14T01:48:04.742Z,14.59
2023-05-14T01:49:04.655Z,14.60
2023-05-14T01:50:04.692Z,14.62
2023-05-14T01:51:04.710Z,14.59
2023-05-14T01:52:04.685Z,14.59
2023-05-14T01:53:04.645Z,14.59
2023-05-14T01:54:04.625Z,14.63
2023-05-14T01:55:04.580Z,14.66
2023-05-14T01:56:04.603Z,14.64
2023-05-14T01:57:04.620Z,14.63
2023-05-14T01:58:04.543Z,14.63
2023-05-14T01:59:04.530Z,14.65
2023-05-14T02:00:04.547Z,14.68
2023-05-14T02:01:04.555Z,14.71
2023-05-14T02:02:04.543Z,14.72
2023-05-14T02:03:04.510Z,14.71
2023-05-14T02:04:04.552Z,14.77
2023-05-14T02:05:06.925Z,14.71
2023-05-14T02:06:04.462Z,14.76
2023-05-14T02:07:04.422Z,14.83
2023-05-14T02:08:04.443Z,14.76
2023-05-14T02:09:04.432Z,14.77
2023-05-14T02:10:04.395Z,14.81
2023-05-14T02:11:04.449Z,14.91
2023-05-14T02:12:04.371Z,14.92
2023-05-14T02:13:04.339Z,14.91
2023-05-14T02:14:04.383Z,14.85
2023-05-14T02:15:04.314Z,14.87
2023-05-14T02:16:04.377Z,14.91
2023-05-14T02:17:04.286Z,14.93
2023-05-14T02:18:04.359Z,15.00
2023-05-14T02:19:04.445Z,15.03
2023-05-14T02:20:04.289Z,15.06
2023-05-14T02:21:04.311Z,15.13
2023-05-14T02:22:04.283Z,15.10
2023-05-14T02:23:04.242Z,15.12
2023-05-14T02:24:04.250Z,15.16
2023-05-14T02:25:04.220Z,15.13
2023-05-14T02:26:04.206Z,15.20
2023-05-14T02:27:04.207Z,15.31
2023-05-14T02:28:04.163Z,15.33
2023-05-14T02:29:04.137Z,15.32
2023-05-14T02:30:04.157Z,15.36
2023-05-14T02:31:04.143Z,15.35
2023-05-14T02:32:04.184Z,15.41
2023-05-14T02:33:04.270Z,15.41
2023-05-14T02:34:04.096Z,15.43
2023-05-14T02:35:04.078Z,15.46
2023-05-14T02:36:04.071Z,15.49
2023-05-14T02:37:04.049Z,15.46
2023-05-14T02:38:04.019Z,15.46
2023-05-14T02:39:04.029Z,15.42
2023-05-14T02:40:04.009Z,15.49
2023-05-14T02:41:04.015Z,15.45
2023-05-14T02:42:04.002Z,15.49
2023-05-14T02:43:03.983Z,15.47
2023-05-14T02:44:03.944Z,15.45
2023-05-14T02:45:03.949Z,15.56
2023-05-14T02:46:03.950Z,15.52
2023-05-14T02:47:04.019Z,15.52
2023-05-14T02:48:03.986Z,15.59
2023-05-14T02:49:03.894Z,15.52
2023-05-14T02:50:03.882Z,15.58
2023-05-14T02:51:03.852Z,15.53
2023-05-14T02:52:03.839Z,15.53
2023-05-14T02:53:03.882Z,15.60
2023-05-14T02:54:03.828Z,15.62
2023-05-14T02:55:03.810Z,15.67
2023-05-14T02:56:03.782Z,15.77
2023-05-14T02:57:03.765Z,15.81
2023-05-14T02:58:03.749Z,15.77
2023-05-14T02:59:03.773Z,15.78
2023-05-14T03:00:03.747Z,15.84
2023-05-14T03:01:03.902Z,15.79
2023-05-14T03:02:03.781Z,15.91
2023-05-14T03:03:03.820Z,15.89
2023-05-14T03:04:03.684Z,15.91
2023-05-14T03:05:03.667Z,15.86
2023-05-14T03:06:03.717Z,16.01
2023-05-14T03:07:03.647Z,16.08
2023-05-14T03:08:03.624Z,16.14
2023-05-14T03:09:03.620Z,16.10
2023-05-14T03:10:03.621Z,16.28
2023-05-14T03:11:03.613Z,16.29
2023-05-14T03:12:03.601Z,16.28
2023-05-14T03:13:03.557Z,16.33
2023-05-14T03:14:03.567Z,16.23
2023-05-14T03:15:03.516Z,16.18
2023-05-14T03:16:03.515Z,16.23
2023-05-14T03:17:03.594Z,16.20
2023-05-14T03:18:03.568Z,16.17
2023-05-14T03:19:03.562Z,16.14
2023-05-14T03:20:03.496Z,16.16
2023-05-14T03:21:03.438Z,16.08
2023-05-14T03:22:03.444Z,16.16
2023-05-14T03:23:03.437Z,16.12
2023-05-14T03:24:03.402Z,16.12
2023-05-14T03:25:03.422Z,16.17
2023-05-14T03:26:03.381Z,16.16
2023-05-14T03:27:03.416Z,16.17
2023-05-14T03:28:03.378Z,16.18
2023-05-14T03:29:03.356Z,16.20
2023-05-14T03:30:03.347Z,16.10
2023-05-14T03:31:03.416Z,16.17
2023-05-14T03:32:03.309Z,16.18
2023-05-14T03:33:03.433Z,16.37
2023-05-14T03:34:03.289Z,16.42
2023-05-14T03:35:03.275Z,16.51
2023-05-14T03:36:03.281Z,16.64
2023-05-14T03:37:03.260Z,16.75
2023-05-14T03:38:03.244Z,16.79
2023-05-14T03:39:03.245Z,16.84
2023-05-14T03:40:03.215Z,16.94
2023-05-14T03:41:03.194Z,16.98
2023-05-14T03:42:03.228Z,17.01
2023-05-14T03:43:03.204Z,16.90
2023-05-14T03:44:03.149Z,16.98
2023-05-14T03:45:03.160Z,16.95
2023-05-14T03:46:03.123Z,16.95
2023-05-14T03:47:03.116Z,16.93
2023-05-14T03:48:03.199Z,16.97
2023-05-14T03:49:03.190Z,16.93
2023-05-14T03:50:03.047Z,16.94
2023-05-14T03:51:03.042Z,16.91
2023-05-14T03:52:03.049Z,16.99
2023-05-14T03:53:03.080Z,17.01
2023-05-14T03:54:03.018Z,16.95
2023-05-14T03:55:03.022Z,16.94
2023-05-14T03:56:02.998Z,17.01
2023-05-14T03:57:02.984Z,17.06
2023-05-14T03:58:02.998Z,17.01
2023-05-14T03:59:02.998Z,17.02
2023-05-14T04:00:02.927Z,17.04
2023-05-14T04:01:02.950Z,17.02
2023-05-14T04:02:02.927Z,17.09
2023-05-14T04:03:02.900Z,17.13
2023-05-14T04:04:03.069Z,17.13
2023-05-14T04:05:02.869Z,17.09
2023-05-14T04:06:02.874Z,17.12
2023-05-14T04:07:02.845Z,17.13
2023-05-14T04:08:02.842Z,17.10
2023-05-14T04:09:02.869Z,17.12
2023-05-14T04:10:04.285Z,17.13
2023-05-14T04:11:02.800Z,17.04
2023-05-14T04:12:02.758Z,17.05
2023-05-14T04:13:02.769Z,17.08
2023-05-14T04:14:02.736Z,17.06
2023-05-14T04:15:02.768Z,17.02
2023-05-14T04:16:02.774Z,17.05
2023-05-14T04:17:02.706Z,17.01
2023-05-14T04:18:02.698Z,17.01
2023-05-14T04:19:02.752Z,17.08
2023-05-14T04:20:02.665Z,17.09
2023-05-14T04:21:02.659Z,17.23
2023-05-14T04:22:02.662Z,17.15
2023-05-14T04:23:02.621Z,17.17
2023-05-14T04:24:02.621Z,17.16
2023-05-14T04:25:02.618Z,17.19
2023-05-14T04:26:02.586Z,17.12
2023-05-14T04:27:02.572Z,17.17
2023-05-14T04:28:02.569Z,17.15
2023-05-14T04:29:02.537Z,17.04
2023-05-14T04:30:02.542Z,17.08
2023-05-14T04:31:02.541Z,17.05
2023-05-14T04:32:02.520Z,17.01
2023-05-14T04:33:02.520Z,17.02
2023-05-14T04:34:02.453Z,16.91
2023-05-14T04:35:02.478Z,17.02
2023-05-14T04:36:02.458Z,16.95
2023-05-14T04:37:02.434Z,16.98
2023-05-14T04:38:02.429Z,16.97
2023-05-14T04:39:02.463Z,16.97
2023-05-14T04:40:02.415Z,16.98
2023-05-14T04:41:02.388Z,16.95
2023-05-14T04:42:02.377Z,16.93
2023-05-14T04:43:02.391Z,16.93
2023-05-14T04:44:02.338Z,16.83
2023-05-14T04:45:02.335Z,16.87
2023-05-14T04:46:02.429Z,16.86
2023-05-14T04:47:02.302Z,16.90
2023-05-14T04:48:02.318Z,16.97
2023-05-14T04:49:02.285Z,16.91
2023-05-14T04:50:02.256Z,16.97
2023-05-14T04:51:02.650Z,17.02
2023-05-14T04:52:02.238Z,17.12
2023-05-14T04:53:02.214Z,17.17
2023-05-14T04:54:02.279Z,17.25
2023-05-14T04:55:02.212Z,17.38
2023-05-14T04:56:02.201Z,17.45
2023-05-14T04:57:02.152Z,17.58
2023-05-14T04:58:02.147Z,17.86
2023-05-14T04:59:02.128Z,18.22
2023-05-14T05:00:02.135Z,18.79
2023-05-14T05:01:02.137Z,19.48
2023-05-14T05:02:02.084Z,19.86
2023-05-14T05:03:02.184Z,20.33
2023-05-14T05:04:02.104Z,20.71
2023-05-14T05:05:02.153Z,21.26
2023-05-14T05:06:02.035Z,21.63
2023-05-14T05:07:02.045Z,21.79
2023-05-14T05:08:02.032Z,22.08
2023-05-14T05:09:02.456Z,22.13
2023-05-14T05:10:02.038Z,22.37
2023-05-14T05:11:01.993Z,22.39
2023-05-14T05:12:01.997Z,22.44
2023-05-14T05:13:01.989Z,22.47
2023-05-14T05:14:02.004Z,22.27
2023-05-14T05:15:01.999Z,22.04
2023-05-14T05:16:02.048Z,21.95
2023-05-14T05:17:01.952Z,21.81
2023-05-14T05:18:02.005Z,21.56
2023-05-14T05:19:01.922Z,21.41
2023-05-14T05:20:01.897Z,21.32
2023-05-14T05:21:01.881Z,21.17
2023-05-14T05:22:01.916Z,20.98
2023-05-14T05:23:01.862Z,20.83
2023-05-14T05:24:01.905Z,20.81
2023-05-14T05:25:01.889Z,20.75
2023-05-14T05:26:01.785Z,20.94
2023-05-14T05:27:01.759Z,21.04
2023-05-14T05:28:01.787Z,21.47
2023-05-14T05:29:01.731Z,22.30
2023-05-14T05:30:01.766Z,23.63
2023-05-14T05:31:01.765Z,26.60
2023-05-14T05:32:01.704Z,30.26
2023-05-14T05:33:01.756Z,33.43
2023-05-14T05:34:01.672Z,36.77
2023-05-14T05:35:01.744Z,40.23
2023-05-14T05:36:01.689Z,44.59
2023-05-14T05:37:01.666Z,49.81
2023-05-14T05:38:01.997Z,54.66
2023-05-14T05:39:01.587Z,59.22
2023-05-14T05:40:01.615Z,64.26
2023-05-14T05:41:01.566Z,69.26
2023-05-14T05:42:01.571Z,73.71
2023-05-14T05:43:01.573Z,76.82
2023-05-14T05:44:01.543Z,80.43
2023-05-14T05:45:01.534Z,85.87
2023-05-14T05:46:01.550Z,90.32
2023-05-14T05:47:01.536Z,94.28
2023-05-14T05:48:01.561Z,97.38
2023-05-14T05:49:01.458Z,103.71
2023-05-14T05:50:01.463Z,107.99
2023-05-14T05:51:01.448Z,113.64
2023-05-14T05:52:01.426Z,119.13
2023-05-14T05:53:01.438Z,124.17
2023-05-14T05:54:01.403Z,129.95
2023-05-14T05:55:01.404Z,134.86
2023-05-14T05:56:01.371Z,139.47
2023-05-14T05:57:01.374Z,143.04
2023-05-14T05:58:01.501Z,146.67
2023-05-14T05:59:01.351Z,152.27
2023-05-14T06:00:01.373Z,156.98
2023-05-14T06:01:01.364Z,161.37
2023-05-14T06:02:01.390Z,167.84
2023-05-14T06:03:01.372Z,172.68
2023-05-14T06:04:01.297Z,175.58
2023-05-14T06:05:01.323Z,181.08
2023-05-14T06:06:01.259Z,184.67
2023-05-14T06:07:01.251Z,189.32
2023-05-14T06:08:01.237Z,193.89
2023-05-14T06:09:01.236Z,198.21
2023-05-14T06:10:01.233Z,202.47
2023-05-14T06:11:01.164Z,204.74
2023-05-14T06:12:01.201Z,207.19
2023-05-14T06:13:01.199Z,209.29
2023-05-14T06:14:01.185Z,211.04
2023-05-14T06:15:01.129Z,214.19
2023-05-14T06:16:01.260Z,220.50
2023-05-14T06:17:01.279Z,225.33
2023-05-14T06:18:01.135Z,230.38
2023-05-14T06:19:01.140Z,233.15
2023-05-14T06:20:01.063Z,236.33
2023-05-14T06:21:01.030Z,238.72
2023-05-14T06:22:01.050Z,238.55
2023-05-14T06:23:01.017Z,238.72
2023-05-14T06:24:01.046Z,242.59
2023-05-14T06:25:01.023Z,248.07
2023-05-14T06:26:01.008Z,249.77
2023-05-14T06:27:00.982Z,251.87
2023-05-14T06:28:00.959Z,252.45
2023-05-14T06:29:00.939Z,257.78
2023-05-14T06:30:00.904Z,259.00
2023-05-14T06:31:00.904Z,262.93
2023-05-14T06:32:00.924Z,269.82
2023-05-14T06:33:00.879Z,273.18
2023-05-14T06:34:00.841Z,280.63
2023-05-14T06:35:00.843Z,283.53
2023-05-14T06:36:00.937Z,284.51
2023-05-14T06:37:00.844Z,293.64
2023-05-14T06:38:00.815Z,296.55
2023-05-14T06:39:00.810Z,300.06
2023-05-14T06:40:00.762Z,305.63
2023-05-14T06:41:00.791Z,314.68
2023-05-14T06:42:00.744Z,320.81
2023-05-14T06:43:00.762Z,324.61
2023-05-14T06:44:00.717Z,326.21
2023-05-14T06:45:00.700Z,331.13
2023-05-14T06:46:00.703Z,337.58
2023-05-14T06:47:00.689Z,334.83
2023-05-14T06:48:00.787Z,338.62
2023-05-14T06:49:00.731Z,341.43
2023-05-14T06:50:00.626Z,344.29
2023-05-14T06:51:00.645Z,352.39
2023-05-14T06:52:00.620Z,353.52
2023-05-14T06:53:00.610Z,355.82
2023-05-14T06:54:00.577Z,360.49
2023-05-14T06:55:00.594Z,372.73
2023-05-14T06:56:00.577Z,375.28
2023-05-14T06:57:00.536Z,382.69
2023-05-14T06:58:00.543Z,385.11
2023-05-14T06:59:00.533Z,386.67
2023-05-14T07:00:02.794Z,393.95
2023-05-14T07:01:00.568Z,391.42
2023-05-14T07:02:00.542Z,404.67
2023-05-14T07:03:00.526Z,414.19
2023-05-14T07:04:00.807Z,413.93
2023-05-14T07:05:00.704Z,417.55
2023-05-14T07:06:00.416Z,421.49
2023-05-14T07:07:00.440Z,431.27
2023-05-14T07:08:00.614Z,429.33
2023-05-14T07:09:00.422Z,431.27
2023-05-14T07:10:00.473Z,435.76
2023-05-14T07:11:00.372Z,442.09
2023-05-14T07:12:00.901Z,448.01
2023-05-14T07:13:00.381Z,450.73
2023-05-14T07:14:00.317Z,454.09
2023-05-14T07:15:00.356Z,462.56
2023-05-14T07:16:00.295Z,471.36
2023-05-14T07:17:00.381Z,472.69
2023-05-14T07:18:00.364Z,478.43
2023-05-14T07:19:00.327Z,489.99
2023-05-14T07:20:00.259Z,491.79
2023-05-14T07:21:00.239Z,496.90
2023-05-14T07:22:00.413Z,504.01
2023-05-14T07:23:00.581Z,517.26
2023-05-14T07:24:00.209Z,522.10
2023-05-14T07:25:00.400Z,528.28
2023-05-14T07:26:00.206Z,532.06
2023-05-14T07:27:00.401Z,532.06
2023-05-14T07:28:00.213Z,537.61
2023-05-14T07:29:00.149Z,555.46
2023-05-14T07:30:00.196Z,560.11
2023-05-14T07:31:00.296Z,566.27
2023-05-14T07:32:00.132Z,578.01
2023-05-14T07:33:00.318Z,581.02
2023-05-14T07:34:00.119Z,589.20
2023-05-14T07:35:00.078Z,584.57
2023-05-14T07:36:00.042Z,584.06
2023-05-14T07:37:00.478Z,584.06
2023-05-14T07:38:00.046Z,592.85
2023-05-14T07:38:59.969Z,603.54
2023-05-14T07:40:00.242Z,614.63
2023-05-14T07:41:01.502Z,622.63
2023-05-14T07:42:00.575Z,623.21
2023-05-14T07:42:59.970Z,629.66
2023-05-14T07:44:00.168Z,642.97
2023-05-14T07:44:59.911Z,646.70
2023-05-14T07:45:59.993Z,654.92
2023-05-14T07:47:00.302Z,660.09
2023-05-14T07:48:00.039Z,670.00
2023-05-14T07:48:59.838Z,680.91
2023-05-14T07:49:59.909Z,694.33
2023-05-14T07:50:59.962Z,703.08
2023-05-14T07:51:59.820Z,712.81
2023-05-14T07:52:59.796Z,714.33
2023-05-14T07:53:59.772Z,719.71
2023-05-14T07:54:59.978Z,731.51
2023-05-14T07:55:59.787Z,739.59
2023-05-14T07:56:59.754Z,746.93
2023-05-14T07:57:59.720Z,766.15
2023-05-14T07:58:59.732Z,776.36
2023-05-14T07:59:59.707Z,777.71
2023-05-14T08:00:59.920Z,784.08
2023-05-14T08:01:59.711Z,790.09
2023-05-14T08:02:59.848Z,797.14
2023-05-14T08:04:00.054Z,799.52
2023-05-14T08:04:59.655Z,799.52
2023-05-14T08:05:59.615Z,808.20
2023-05-14T08:06:59.611Z,807.72
2023-05-14T08:07:59.629Z,803.84
2023-05-14T08:08:59.875Z,815.09
2023-05-14T08:09:59.566Z,834.89
2023-05-14T08:10:59.604Z,843.30
2023-05-14T08:11:59.744Z,855.68
2023-05-14T08:12:59.543Z,874.10
2023-05-14T08:13:59.538Z,882.16
2023-05-14T08:14:59.624Z,881.00
2023-05-14T08:15:59.704Z,875.82
2023-05-14T08:16:59.538Z,882.74
2023-05-14T08:17:59.506Z,886.24
2023-05-14T08:18:59.544Z,890.96
2023-05-14T08:19:59.717Z,888.01
2023-05-14T08:20:59.733Z,897.52
2023-05-14T08:21:59.517Z,916.55
2023-05-14T08:22:59.413Z,941.67
2023-05-14T08:23:59.383Z,958.51
2023-05-14T08:24:59.361Z,978.10
2023-05-14T08:25:59.380Z,979.53
2023-05-14T08:26:59.335Z,988.20
2023-05-14T08:27:59.344Z,997.02
2023-05-14T08:28:59.693Z,1006.76
2023-05-14T08:29:59.312Z,1019.01
2023-05-14T08:30:59.336Z,1033.95
2023-05-14T08:32:03.701Z,1040.37
2023-05-14T08:32:59.319Z,1046.06
2023-05-14T08:33:59.249Z,1037.15
2023-05-14T08:34:59.258Z,1042.80
2023-05-14T08:35:59.240Z,1050.98
2023-05-14T08:36:59.237Z,1058.45
2023-05-14T08:37:59.209Z,1067.73
2023-05-14T08:38:59.288Z,1092.09
2023-05-14T08:39:59.286Z,1097.46
2023-05-14T08:40:59.157Z,1096.56
2023-05-14T08:41:59.183Z,1105.61
2023-05-14T08:42:59.184Z,1127.00
2023-05-14T08:43:59.120Z,1121.34
2023-05-14T08:44:59.233Z,1142.37
2023-05-14T08:45:59.139Z,1164.20
2023-05-14T08:46:59.115Z,1153.18
2023-05-14T08:47:59.137Z,1164.20
2023-05-14T08:48:59.089Z,1169.28
2023-05-14T08:49:59.041Z,1181.66
2023-05-14T08:50:59.043Z,1197.50
2023-05-14T08:51:59.037Z,1223.74
2023-05-14T08:52:59.025Z,1227.11
2023-05-14T08:53:59.022Z,1246.51
2023-05-14T08:54:59.000Z,1248.83
2023-05-14T08:55:58.979Z,1262.96
2023-05-14T08:56:58.966Z,1264.15
2023-05-14T08:57:58.932Z,1285.99
2023-05-14T08:58:58.977Z,1283.52
2023-05-14T08:59:58.923Z,1294.69
2023-05-14T09:00:59.005Z,1311.15
2023-05-14T09:01:58.966Z,1328.05
2023-05-14T09:02:58.918Z,1330.69
2023-05-14T09:03:58.933Z,1322.80
2023-05-14T09:04:58.916Z,1324.11
2023-05-14T09:06:00.117Z,1334.66
2023-05-14T09:06:58.831Z,1368.74
2023-05-14T09:07:58.857Z,1374.36
2023-05-14T09:08:58.809Z,1382.87
2023-05-14T09:09:58.821Z,1390.04
2023-05-14T09:10:58.794Z,1409.04
2023-05-14T09:11:58.783Z,1422.51
2023-05-14T09:12:58.775Z,1443.96
2023-05-14T09:13:58.753Z,1472.53
2023-05-14T09:14:58.723Z,1480.66
2023-05-14T09:15:58.826Z,1503.93
2023-05-14T09:16:58.802Z,1510.71
2023-05-14T09:17:58.735Z,1503.93
2023-05-14T09:18:58.698Z,1512.42
2023-05-14T09:19:58.766Z,1497.21
2023-05-14T09:20:58.671Z,1509.01
2023-05-14T09:21:58.640Z,1503.93
2023-05-14T09:22:58.623Z,1516.69
2023-05-14T09:23:58.672Z,1509.01
2023-05-14T09:24:58.651Z,1515.84
2023-05-14T09:25:58.611Z,1520.14
2023-05-14T09:26:58.731Z,1513.27
2023-05-14T09:27:59.063Z,1509.86
2023-05-14T09:28:58.582Z,1521.00
2023-05-14T09:29:58.562Z,1542.89
2023-05-14T09:30:58.635Z,1552.72
2023-05-14T09:31:58.610Z,1545.56
2023-05-14T09:32:58.588Z,1560.86
2023-05-14T09:33:58.520Z,1541.11
2023-05-14T09:34:58.477Z,1543.78
2023-05-14T09:35:58.499Z,1554.52
2023-05-14T09:36:58.563Z,1559.95
2023-05-14T09:37:58.434Z,1563.59
2023-05-14T09:38:58.456Z,1574.62
2023-05-14T09:39:58.427Z,1614.46
2023-05-14T09:40:58.411Z,1611.55
2023-05-14T09:41:58.406Z,1612.52
2023-05-14T09:42:58.370Z,1589.56
2023-05-14T09:43:58.366Z,1593.34
2023-05-14T09:44:58.391Z,1596.19
2023-05-14T09:45:58.353Z,1578.33
2023-05-14T09:46:58.352Z,1570.01
2023-05-14T09:47:58.480Z,1579.26
2023-05-14T09:48:58.311Z,1600.00
2023-05-14T09:49:58.277Z,1614.46
2023-05-14T09:50:58.261Z,1648.22
2023-05-14T09:51:58.265Z,1671.86
2023-05-14T09:52:58.239Z,1698.35
2023-05-14T09:53:58.239Z,1724.58
2023-05-14T09:54:58.221Z,1732.39
2023-05-14T09:55:58.195Z,1731.27
2023-05-14T09:56:58.192Z,1720.15
2023-05-14T09:57:58.171Z,1719.05
2023-05-14T09:58:58.165Z,1717.95
2023-05-14T09:59:58.208Z,1743.66
2023-05-14T10:00:58.156Z,1757.38
2023-05-14T10:01:58.154Z,1780.73
2023-05-14T10:02:58.322Z,1790.25
2023-05-14T10:03:58.140Z,1797.45
2023-05-14T10:04:58.225Z,1853.39
2023-05-14T10:05:58.144Z,1880.70
2023-05-14T10:06:58.101Z,1908.83
2023-05-14T10:07:58.055Z,1899.36
2023-05-14T10:08:58.014Z,1922.53
2023-05-14T10:09:59.584Z,1902.06
2023-05-14T10:10:57.984Z,1899.36
2023-05-14T10:11:58.029Z,1926.67
2023-05-14T10:12:57.996Z,1923.91
2023-05-14T10:13:57.987Z,1930.83
2023-05-14T10:14:57.964Z,1926.67
2023-05-14T10:15:57.935Z,1937.82
2023-05-14T10:16:58.028Z,1943.44
2023-05-14T10:17:58.003Z,1953.35
2023-05-14T10:18:57.954Z,1937.82
2023-05-14T10:19:57.916Z,1914.29
2023-05-14T10:20:57.879Z,1915.65
2023-05-14T10:21:57.858Z,1898.02
2023-05-14T10:22:57.839Z,1911.55
2023-05-14T10:23:57.848Z,1921.15
2023-05-14T10:24:57.850Z,1917.02
2023-05-14T10:25:57.806Z,1912.92
2023-05-14T10:26:57.810Z,1904.76
2023-05-14T10:27:57.794Z,1902.06
2023-05-14T10:28:57.800Z,1907.47
2023-05-14T10:29:57.780Z,1899.36
2023-05-14T10:30:57.757Z,1891.32
2023-05-14T10:31:57.740Z,1883.34
2023-05-14T10:32:57.846Z,1867.59
2023-05-14T10:33:59.883Z,1858.53
2023-05-14T10:34:57.715Z,1857.24
2023-05-14T10:35:57.679Z,1861.11
2023-05-14T10:36:57.680Z,1844.46
2023-05-14T10:37:57.668Z,1852.11
2023-05-14T10:38:57.675Z,1865.00
2023-05-14T10:39:57.639Z,1871.51
2023-05-14T10:40:57.631Z,1880.70
2023-05-14T10:41:57.645Z,1893.99
2023-05-14T10:42:57.614Z,1889.99
2023-05-14T10:43:57.596Z,1865.00
2023-05-14T10:44:57.576Z,1843.19
2023-05-14T10:45:57.579Z,1854.67
2023-05-14T10:46:57.714Z,1870.20
2023-05-14T10:47:57.690Z,1875.44
2023-05-14T10:48:57.569Z,1899.36
2023-05-14T10:49:57.492Z,1908.83
2023-05-14T10:50:57.632Z,1921.15
2023-05-14T10:51:57.806Z,1915.65
2023-05-14T10:52:57.495Z,1922.53
2023-05-14T10:53:57.459Z,1915.65
2023-05-14T10:54:57.843Z,1918.40
2023-05-14T10:55:57.478Z,1911.55
2023-05-14T10:56:57.392Z,1911.55
2023-05-14T10:57:57.407Z,1912.92
2023-05-14T10:58:57.373Z,1944.85
2023-05-14T10:59:57.370Z,1923.91
2023-05-14T11:00:57.322Z,1932.23
2023-05-14T11:01:57.385Z,1930.83
2023-05-14T11:02:57.363Z,1917.02
2023-05-14T11:03:57.337Z,1930.83
2023-05-14T11:04:57.281Z,1935.02
2023-05-14T11:05:57.728Z,1944.85
2023-05-14T11:06:57.287Z,1939.22
2023-05-14T11:07:57.257Z,1926.67
2023-05-14T11:08:57.228Z,1911.55
2023-05-14T11:09:57.225Z,1883.34
2023-05-14T11:10:57.246Z,1874.13
2023-05-14T11:11:57.219Z,1854.67
2023-05-14T11:12:57.184Z,1867.59
2023-05-14T11:13:57.195Z,1891.32
2023-05-14T11:14:57.153Z,1888.65
2023-05-14T11:15:57.167Z,1892.66
2023-05-14T11:16:57.224Z,1898.02
2023-05-14T11:17:57.196Z,1892.66
2023-05-14T11:18:57.129Z,1876.75
2023-05-14T11:19:57.115Z,1867.59
2023-05-14T11:20:57.079Z,1883.34
2023-05-14T11:21:57.091Z,1882.02
2023-05-14T11:22:57.094Z,1880.70
2023-05-14T11:23:57.109Z,1859.82
2023-05-14T11:24:57.137Z,1878.06
2023-05-14T11:25:57.069Z,1887.32
2023-05-14T11:26:57.010Z,1872.82
2023-05-14T11:27:56.988Z,1879.38
2023-05-14T11:28:57.013Z,1876.75
2023-05-14T11:29:56.980Z,1878.06
2023-05-14T11:30:56.961Z,1895.33
2023-05-14T11:31:56.964Z,1915.65
2023-05-14T11:32:57.352Z,1875.44
2023-05-14T11:33:56.896Z,1839.40
2023-05-14T11:34:56.888Z,1814.49
2023-05-14T11:35:56.971Z,1779.55
2023-05-14T11:36:56.856Z,1764.32
2023-05-14T11:37:56.902Z,1758.53
2023-05-14T11:38:56.845Z,1756.22
2023-05-14T11:39:56.846Z,1748.21
2023-05-14T11:40:56.864Z,1748.21
2023-05-14T11:41:56.791Z,1733.51
2023-05-14T11:42:56.776Z,1744.79
2023-05-14T11:43:56.784Z,1733.51
2023-05-14T11:44:56.776Z,1747.07
2023-05-14T11:45:56.999Z,1727.92
2023-05-14T11:46:56.752Z,1705.92
2023-05-14T11:47:56.743Z,1703.75
2023-05-14T11:48:56.733Z,1721.26
2023-05-14T11:49:56.705Z,1733.51
2023-05-14T11:50:56.699Z,1736.88
2023-05-14T11:51:56.769Z,1729.03
2023-05-14T11:52:56.665Z,1707.01
2023-05-14T11:53:56.645Z,1691.92
2023-05-14T11:54:56.618Z,1682.36
2023-05-14T11:55:56.613Z,1701.59
2023-05-14T11:56:56.630Z,1670.82
2023-05-14T11:57:56.612Z,1657.39
2023-05-14T11:58:56.590Z,1641.15
2023-05-14T11:59:56.576Z,1646.19
2023-05-14T12:00:56.597Z,1622.28
2023-05-14T12:01:56.544Z,1603.83
2023-05-14T12:02:56.613Z,1594.29
2023-05-14T12:03:56.662Z,1591.45
2023-05-14T12:04:56.534Z,1582.05
2023-05-14T12:05:56.520Z,1568.17
2023-05-14T12:06:56.462Z,1569.09
2023-05-14T12:07:56.526Z,1572.77
2023-05-14T12:08:56.434Z,1569.09
2023-05-14T12:09:56.429Z,1565.42
2023-05-14T12:10:56.399Z,1584.86
2023-05-14T12:11:56.377Z,1585.80
2023-05-14T12:12:56.390Z,1594.29
2023-05-14T12:13:56.385Z,1582.99
2023-05-14T12:14:56.377Z,1593.34
2023-05-14T12:15:56.406Z,1622.28
2023-05-14T12:16:56.322Z,1666.67
2023-05-14T12:17:56.346Z,1676.05
2023-05-14T12:18:56.326Z,1701.59
2023-05-14T12:19:56.315Z,1714.65
2023-05-14T12:20:56.308Z,1725.69
2023-05-14T12:21:56.253Z,1764.32
2023-05-14T12:22:56.267Z,1795.04
2023-05-14T12:23:56.219Z,1808.37
2023-05-14T12:24:56.289Z,1808.37
2023-05-14T12:25:56.220Z,1854.67
2023-05-14T12:26:56.219Z,1863.70
2023-05-14T12:27:56.197Z,1891.32
2023-05-14T12:28:56.161Z,1915.65
2023-05-14T12:29:56.299Z,1947.67
2023-05-14T12:30:56.190Z,1907.47